Estación de Los Angeles
Ultimos registro cada 15 minutos 37
| N° | Estación | Fecha / Hora | Temperatura | Humedad | Lluvia | Velocidad | Dirección | Radiación | Presion |
| 37 | Los Angeles | 09-05-2026 09:00 | 9,4 | 63,6 | 0 | 2 | 140 | 241,9 | 1013,7 |
| 36 | Los Angeles | 09-05-2026 08:45 | 9,1 | 65,3 | 0 | 1,7 | 140 | 194,4 | 1013,7 |
| 35 | Los Angeles | 09-05-2026 08:30 | 8,5 | 65,8 | 0 | 1,7 | 129 | 19,4 | 1013,6 |
| 34 | Los Angeles | 09-05-2026 08:15 | 8 | 68,4 | 0 | 1,7 | 132 | 18,1 | 1013,3 |
| 33 | Los Angeles | 09-05-2026 08:00 | 7,2 | 69,7 | 0 | 1,7 | 133 | 45,6 | 1013,2 |
| 32 | Los Angeles | 09-05-2026 07:45 | 7 | 70,7 | 0 | 1,7 | 131 | 6,9 | 1013,2 |
| 31 | Los Angeles | 09-05-2026 07:30 | 6,8 | 71,8 | 0 | 1,7 | 132 | 1,9 | 1013,2 |
| 30 | Los Angeles | 09-05-2026 07:15 | 6,7 | 72,8 | 0 | 2 | 129 | 0,6 | 1013,1 |
| 29 | Los Angeles | 09-05-2026 07:00 | 6,6 | 73,7 | 0 | 1,7 | 132 | 0,6 | 1013,2 |
| 28 | Los Angeles | 09-05-2026 06:45 | 6,6 | 74,3 | 0 | 2 | 128 | 0,6 | 1013,2 |
| 27 | Los Angeles | 09-05-2026 06:30 | 6,8 | 73,6 | 0 | 2 | 138 | 0,6 | 1013,2 |
| 26 | Los Angeles | 09-05-2026 06:15 | 6,7 | 74,9 | 0 | 2 | 138 | 0,6 | 1013,3 |
| 25 | Los Angeles | 09-05-2026 06:00 | 6,6 | 76,1 | 0 | 1,3 | 129 | 0,6 | 1013,4 |
| 24 | Los Angeles | 09-05-2026 05:45 | 6,7 | 76,1 | 0 | 1,7 | 132 | 0,6 | 1013,5 |
| 23 | Los Angeles | 09-05-2026 05:30 | 6,7 | 76,3 | 0 | 1,7 | 139 | 0,6 | 1013,6 |
| 22 | Los Angeles | 09-05-2026 05:15 | 6,8 | 76,5 | 0 | 1,7 | 131 | 0,6 | 1013,7 |
| 21 | Los Angeles | 09-05-2026 05:00 | 7,1 | 75,6 | 0 | 2 | 142 | 0,6 | 1013,8 |
| 20 | Los Angeles | 09-05-2026 04:45 | 7,2 | 75,7 | 0 | 1,7 | 142 | 0,6 | 1013,7 |
| 19 | Los Angeles | 09-05-2026 04:30 | 7,2 | 76,2 | 0 | 1,7 | 138 | 0,6 | 1013,7 |
| 18 | Los Angeles | 09-05-2026 04:15 | 7,3 | 76,5 | 0 | 1,7 | 142 | 0,6 | 1013,7 |
| 17 | Los Angeles | 09-05-2026 04:00 | 7,3 | 77,3 | 0 | 1,7 | 135 | 0,6 | 1013,7 |
| 16 | Los Angeles | 09-05-2026 03:45 | 7,2 | 78,5 | 0 | 1,3 | 143 | 0,6 | 1013,8 |
| 15 | Los Angeles | 09-05-2026 03:30 | 7,1 | 80,2 | 0 | 1,3 | 135 | 0,6 | 1013,9 |
| 14 | Los Angeles | 09-05-2026 03:15 | 7,4 | 80,1 | 0 | 1,3 | 136 | 0,6 | 1014,1 |
| 13 | Los Angeles | 09-05-2026 03:00 | 7,3 | 80,9 | 0 | 1,3 | 133 | 0,6 | 1014,1 |
| 12 | Los Angeles | 09-05-2026 02:45 | 7,7 | 80,4 | 0 | 1,7 | 139 | 0,6 | 1014,2 |
| 11 | Los Angeles | 09-05-2026 02:30 | 7,7 | 80,8 | 0 | 1,7 | 129 | 0,6 | 1014,2 |
| 10 | Los Angeles | 09-05-2026 02:15 | 7,7 | 82 | 0 | 1,7 | 145 | 0,6 | 1014,2 |
| 9 | Los Angeles | 09-05-2026 02:00 | 7,8 | 82,9 | 0 | 2 | 152 | 0,6 | 1014,3 |
| 8 | Los Angeles | 09-05-2026 01:45 | 7,9 | 84,1 | 0 | 2 | 135 | 0,6 | 1014,3 |
| 7 | Los Angeles | 09-05-2026 01:30 | 7,8 | 84,4 | 0 | 1,7 | 135 | 0,6 | 1014,4 |
| 6 | Los Angeles | 09-05-2026 01:15 | 8,1 | 84,6 | 0 | 2 | 146 | 0,6 | 1014,3 |
| 5 | Los Angeles | 09-05-2026 01:00 | 8,2 | 85,2 | 0 | 1,7 | 139 | 0,6 | 1014,4 |
| 4 | Los Angeles | 09-05-2026 00:45 | 8,4 | 85,3 | 0 | 2 | 138 | 0,6 | 1014,2 |
| 3 | Los Angeles | 09-05-2026 00:30 | 8,5 | 85,8 | 0 | 1,7 | 138 | 0,6 | 1014 |
| 2 | Los Angeles | 09-05-2026 00:15 | 8,6 | 85,8 | 0 | 1,7 | 143 | 0,6 | 1014 |
| 1 | Los Angeles | 09-05-2026 00:00 | 8,7 | 86,2 | 0 | 1,7 | 142 | 0,6 | 1014,1 |